Terminal Aerodrome Forecast
Issued by NWS

Current Version | Previous Version | Graphics & Text | Print | Product List | Glossary On
Versions: 1 2 3 4 5 6 7 8 9 10 11 12 13 14 15 16 17 18 19 20 21 22 23 24 25 26 27 28 29 30 31 32
000
FTUS41 KRNK 142322
TAFLWB
TAF
KLWB 142322Z 1500/1524 02005KT P6SM OVC025
     FM150400 00000KT 4SM BR OVC018
     FM150600 00000KT 1/4SM FG OVC001
     FM151000 26003KT 6SM BR SCT003 OVC025
     FM151400 27003KT P6SM BKN035
     FM151800 28006KT P6SM BKN050=

USA.gov is the U.S. government's official web portal to all federal, state and local government web resources and services.